Time;durP1;ratioP1;P1;durP2;ratioP2;P2;SDS_P1;SDS_P2;PMS_P1;PMS_P2;Temp;Humidity;BMP_temperature;BMP_pressure;BME280_temperature;BME280_humidity;BME280_pressure;Samples;Min_cycle;Max_cycle;Signal;HPM_P1;HPM_P2
2022/08/16 00:00:25;;;;;;;2.55;2.35;;;18.80;99.90;;;;;;5075165;28;20205;-59
2022/08/16 00:02:53;;;;;;;3.65;2.83;;;18.90;99.90;;;;;;5075252;28;20229;-59
2022/08/16 00:05:22;;;;;;;3.88;2.50;;;18.90;99.90;;;;;;5074116;28;20255;-59
2022/08/16 00:07:49;;;;;;;4.47;2.60;;;19.00;99.90;;;;;;5074812;28;20676;-58
2022/08/16 00:10:17;;;;;;;5.40;2.85;;;19.00;99.90;;;;;;5074524;28;20205;-59
2022/08/16 00:12:46;;;;;;;4.22;2.70;;;19.20;99.90;;;;;;5074920;28;20606;-59
2022/08/16 00:15:17;;;;;;;4.60;2.28;;;19.30;99.90;;;;;;5074268;28;20613;-59
2022/08/16 00:17:44;;;;;;;3.65;2.33;;;19.40;99.90;;;;;;5075091;28;20621;-59
2022/08/16 00:20:12;;;;;;;5.25;2.08;;;19.40;99.90;;;;;;5074992;28;20254;-59
2022/08/16 00:22:41;;;;;;;3.03;2.40;;;19.40;99.90;;;;;;5074455;28;20215;-59
2022/08/16 00:25:11;;;;;;;4.80;2.67;;;19.60;99.90;;;;;;5074386;28;20225;-59
2022/08/16 00:27:38;;;;;;;4.32;2.47;;;19.60;99.90;;;;;;5074433;28;20215;-59
2022/08/16 00:30:09;;;;;;;5.40;2.53;;;19.60;99.90;;;;;;5074641;28;20213;-59
2022/08/16 00:32:38;;;;;;;4.25;2.28;;;19.60;99.90;;;;;;5074639;28;20224;-59
2022/08/16 00:35:07;;;;;;;4.05;2.33;;;19.50;99.90;;;;;;5074271;28;20227;-59
2022/08/16 00:37:33;;;;;;;2.97;2.30;;;19.50;99.90;;;;;;5074810;28;20205;-59
2022/08/16 00:40:00;;;;;;;5.00;2.40;;;19.40;99.90;;;;;;5074880;28;20268;-59
2022/08/16 00:42:30;;;;;;;2.85;2.17;;;19.40;99.90;;;;;;5075861;28;20209;-59
2022/08/16 00:45:01;;;;;;;4.15;2.40;;;19.30;99.90;;;;;;5076411;28;20223;-59
2022/08/16 00:47:29;;;;;;;3.55;2.30;;;19.20;99.90;;;;;;5076363;28;20262;-59
2022/08/16 00:49:56;;;;;;;2.75;2.25;;;19.10;99.90;;;;;;5075897;28;20200;-59
2022/08/16 00:52:23;;;;;;;4.70;2.70;;;19.20;99.90;;;;;;5076075;28;20216;-59
2022/08/16 00:54:50;;;;;;;2.90;2.42;;;19.10;99.90;;;;;;5075311;28;20236;-61
2022/08/16 00:57:17;;;;;;;3.10;2.50;;;19.10;99.90;;;;;;5076640;28;20216;-59
2022/08/16 00:59:44;;;;;;;3.70;2.40;;;19.10;99.90;;;;;;5078333;28;20204;-59
2022/08/16 01:02:12;;;;;;;2.83;2.50;;;19.00;99.90;;;;;;5078091;28;20273;-59
2022/08/16 01:04:40;;;;;;;4.15;2.53;;;18.90;99.90;;;;;;5077428;28;20233;-59
2022/08/16 01:07:08;;;;;;;3.13;2.50;;;18.80;99.90;;;;;;5078358;28;20258;-59
2022/08/16 01:09:37;;;;;;;2.95;2.50;;;18.80;99.90;;;;;;5078503;28;20272;-59
2022/08/16 01:12:09;;;;;;;4.15;2.78;;;18.80;99.90;;;;;;5078213;28;20204;-59
2022/08/16 01:14:41;;;;;;;2.92;2.53;;;18.70;99.90;;;;;;5078334;28;20309;-59
2022/08/16 01:17:08;;;;;;;2.97;2.47;;;18.70;99.90;;;;;;5077934;28;20208;-59
2022/08/16 01:19:42;;;;;;;5.43;2.63;;;18.70;99.90;;;;;;5077374;28;20215;-59
2022/08/16 01:22:16;;;;;;;3.75;3.00;;;18.70;99.90;;;;;;5079633;28;20652;-59
2022/08/16 01:24:47;;;;;;;3.30;2.70;;;18.80;99.90;;;;;;5078772;28;20232;-59
2022/08/16 01:27:19;;;;;;;3.72;2.65;;;18.80;99.90;;;;;;5078984;28;20813;-59
2022/08/16 01:29:53;;;;;;;3.60;2.80;;;18.90;99.90;;;;;;5078795;28;20216;-59
2022/08/16 01:32:20;;;;;;;3.75;2.80;;;18.90;99.90;;;;;;5078589;28;20193;-59
2022/08/16 01:34:46;;;;;;;2.75;2.53;;;18.90;99.90;;;;;;5079348;28;20261;-59
2022/08/16 01:37:14;;;;;;;4.30;2.58;;;18.90;99.90;;;;;;5079214;28;20205;-59
2022/08/16 01:39:42;;;;;;;3.70;2.53;;;18.90;99.90;;;;;;5079068;28;20257;-59
2022/08/16 01:42:11;;;;;;;3.15;2.70;;;18.90;99.90;;;;;;5078953;28;20200;-59
2022/08/16 01:44:39;;;;;;;2.65;2.45;;;19.00;99.90;;;;;;5078435;28;20221;-60
2022/08/16 01:47:07;;;;;;;3.28;2.78;;;19.00;99.90;;;;;;5078799;28;20219;-59
2022/08/16 01:49:36;;;;;;;4.00;2.80;;;18.90;99.90;;;;;;5079210;28;20292;-59
2022/08/16 01:52:07;;;;;;;2.92;2.45;;;18.90;99.90;;;;;;5078725;28;20211;-59
2022/08/16 01:54:34;;;;;;;3.80;2.50;;;18.90;99.90;;;;;;5078335;28;20225;-59
2022/08/16 01:57:02;;;;;;;3.75;2.30;;;18.90;99.90;;;;;;5078995;28;20220;-59
2022/08/16 01:59:31;;;;;;;5.45;2.70;;;18.80;99.90;;;;;;5078101;28;20200;-59
2022/08/16 02:01:59;;;;;;;4.30;2.63;;;18.80;99.90;;;;;;5079146;28;20579;-59
2022/08/16 02:04:26;;;;;;;3.08;2.50;;;18.70;99.90;;;;;;5078609;28;20256;-59
2022/08/16 02:06:53;;;;;;;5.18;2.60;;;18.70;99.90;;;;;;5078023;28;20247;-59
2022/08/16 02:09:21;;;;;;;4.30;2.55;;;18.60;99.90;;;;;;5078305;28;20201;-59
2022/08/16 02:11:52;;;;;;;3.85;2.70;;;18.60;99.90;;;;;;5078748;28;20546;-59
2022/08/16 02:14:19;;;;;;;5.93;2.70;;;18.60;99.90;;;;;;5078841;28;20217;-59
2022/08/16 02:16:47;;;;;;;3.60;2.58;;;18.50;99.90;;;;;;5078102;28;20299;-59
2022/08/16 02:19:16;;;;;;;3.70;2.65;;;18.50;99.90;;;;;;5077997;28;20704;-59
2022/08/16 02:21:44;;;;;;;5.00;2.75;;;18.40;99.90;;;;;;5078464;28;20274;-59
2022/08/16 02:24:11;;;;;;;5.32;2.58;;;18.40;99.90;;;;;;5078423;28;20231;-59
2022/08/16 02:26:38;;;;;;;4.57;2.88;;;18.40;99.90;;;;;;5078552;28;20209;-59
2022/08/16 02:29:05;;;;;;;3.63;2.70;;;18.40;99.90;;;;;;5077712;28;20205;-59
2022/08/16 02:31:32;;;;;;;3.30;3.00;;;18.30;99.90;;;;;;5078108;28;20201;-59
2022/08/16 02:34:01;;;;;;;5.63;3.13;;;18.30;99.90;;;;;;5078090;28;20272;-59
2022/08/16 02:36:28;;;;;;;2.90;2.60;;;18.30;99.90;;;;;;5077995;28;20221;-58
2022/08/16 02:38:54;;;;;;;3.28;2.92;;;18.30;99.90;;;;;;5077277;28;20211;-58
2022/08/16 02:41:21;;;;;;;4.03;2.90;;;18.30;99.90;;;;;;5077721;28;20215;-58
2022/08/16 02:43:48;;;;;;;3.55;3.05;;;18.20;99.90;;;;;;5077884;28;20211;-58
2022/08/16 02:46:15;;;;;;;3.78;2.75;;;18.20;99.90;;;;;;5077208;28;20197;-58
2022/08/16 02:48:42;;;;;;;3.58;2.80;;;18.20;99.90;;;;;;5077798;28;20209;-58
2022/08/16 02:51:11;;;;;;;3.20;2.90;;;18.10;99.90;;;;;;5077945;28;20211;-58
2022/08/16 02:53:42;;;;;;;3.08;2.67;;;18.10;99.90;;;;;;5078048;28;20228;-58
2022/08/16 02:56:09;;;;;;;3.10;2.80;;;18.20;99.90;;;;;;5077578;28;20225;-58
2022/08/16 02:58:37;;;;;;;3.22;2.90;;;18.30;99.90;;;;;;5077515;28;20208;-58
2022/08/16 03:01:05;;;;;;;3.42;2.80;;;18.30;99.90;;;;;;5077504;28;20208;-58
2022/08/16 03:03:33;;;;;;;2.95;2.65;;;18.40;99.90;;;;;;5077314;28;20217;-58
2022/08/16 03:06:00;;;;;;;3.58;2.70;;;18.40;99.90;;;;;;5076851;28;20308;-58
2022/08/16 03:08:29;;;;;;;3.85;3.00;;;18.40;99.90;;;;;;5077034;28;20677;-58
2022/08/16 03:10:57;;;;;;;3.35;3.05;;;18.40;99.90;;;;;;5077346;28;20254;-58
2022/08/16 03:13:24;;;;;;;3.92;3.25;;;18.30;99.90;;;;;;5077165;28;20205;-58
2022/08/16 03:15:51;;;;;;;5.70;3.17;;;18.20;99.90;;;;;;5077029;28;20221;-58
2022/08/16 03:18:18;;;;;;;3.30;3.00;;;18.20;99.90;;;;;;5076805;28;20258;-57
2022/08/16 03:20:45;;;;;;;3.75;2.92;;;18.30;99.90;;;;;;5076546;28;20552;-58
2022/08/16 03:23:12;;;;;;;4.03;3.10;;;18.40;99.90;;;;;;5077211;28;20588;-58
2022/08/16 03:25:40;;;;;;;3.50;3.20;;;18.40;99.90;;;;;;5076972;28;20256;-58
2022/08/16 03:28:08;;;;;;;3.25;2.95;;;18.40;99.90;;;;;;5077494;28;20205;-58
2022/08/16 03:30:36;;;;;;;3.30;2.95;;;18.40;99.90;;;;;;5076802;28;20266;-58
2022/08/16 03:33:03;;;;;;;4.22;3.03;;;18.40;99.90;;;;;;5076728;28;20234;-58
2022/08/16 03:35:32;;;;;;;4.53;2.60;;;18.40;99.90;;;;;;5077015;28;20232;-59
2022/08/16 03:38:01;;;;;;;4.28;2.90;;;18.40;99.90;;;;;;5077328;28;20205;-58
2022/08/16 03:40:28;;;;;;;4.68;3.08;;;18.30;99.90;;;;;;5076636;28;20216;-58
2022/08/16 03:42:56;;;;;;;3.55;2.90;;;18.30;99.90;;;;;;5076877;28;20224;-58
2022/08/16 03:45:24;;;;;;;4.35;3.10;;;18.20;99.90;;;;;;5076516;28;20231;-58
2022/08/16 03:47:51;;;;;;;7.15;3.47;;;18.10;99.90;;;;;;5076802;28;20212;-58
2022/08/16 03:50:19;;;;;;;4.05;3.28;;;18.10;99.90;;;;;;5076005;28;20208;-58
2022/08/16 03:52:46;;;;;;;7.18;3.03;;;18.00;99.90;;;;;;5075995;28;20296;-58
2022/08/16 03:55:12;;;;;;;4.22;3.25;;;17.90;99.90;;;;;;5076087;28;20228;-58
2022/08/16 03:57:40;;;;;;;7.88;3.53;;;17.80;99.90;;;;;;5076219;28;20311;-58
2022/08/16 04:00:13;;;;;;;3.25;2.85;;;17.80;99.90;;;;;;5075975;28;20201;-61
2022/08/16 04:02:40;;;;;;;7.35;3.05;;;17.80;99.90;;;;;;5076026;28;20258;-58
2022/08/16 04:05:08;;;;;;;4.38;2.92;;;17.70;99.90;;;;;;5076223;28;20345;-58
2022/08/16 04:07:36;;;;;;;4.35;3.10;;;17.70;99.90;;;;;;5075627;28;20727;-58
2022/08/16 04:10:06;;;;;;;3.45;3.10;;;17.60;99.90;;;;;;5075336;28;20691;-58
2022/08/16 04:12:34;;;;;;;4.28;3.35;;;17.50;99.90;;;;;;5075622;28;20215;-58
2022/08/16 04:15:01;;;;;;;3.70;3.30;;;17.40;99.90;;;;;;5075343;28;20255;-58
2022/08/16 04:17:31;;;;;;;4.28;3.45;;;17.40;99.90;;;;;;5075718;28;20268;-58
2022/08/16 04:19:58;;;;;;;4.72;3.42;;;17.30;99.90;;;;;;5075229;28;20208;-58
2022/08/16 04:22:25;;;;;;;4.13;3.15;;;17.30;99.90;;;;;;5076120;28;20211;-58
2022/08/16 04:24:52;;;;;;;4.63;3.03;;;17.30;99.90;;;;;;5074947;28;20335;-58
2022/08/16 04:27:19;;;;;;;3.95;3.55;;;17.30;99.90;;;;;;5075606;28;20205;-58
2022/08/16 04:29:46;;;;;;;3.38;3.08;;;17.20;99.90;;;;;;5075648;28;20211;-58
2022/08/16 04:32:13;;;;;;;5.55;3.40;;;17.20;99.90;;;;;;5075446;28;20216;-58
2022/08/16 04:34:41;;;;;;;4.38;3.17;;;17.30;99.90;;;;;;5075820;28;20311;-59
2022/08/16 04:37:08;;;;;;;3.65;3.33;;;17.40;99.90;;;;;;5076315;28;20232;-59
2022/08/16 04:39:36;;;;;;;4.47;3.47;;;17.50;99.90;;;;;;5076922;28;20209;-59
2022/08/16 04:42:05;;;;;;;3.60;3.30;;;17.40;99.90;;;;;;5076828;28;20572;-59
2022/08/16 04:44:31;;;;;;;5.10;3.22;;;17.50;99.90;;;;;;5076004;28;20221;-58
2022/08/16 04:46:59;;;;;;;3.45;3.08;;;17.50;99.90;;;;;;5076184;28;20208;-58
2022/08/16 04:49:26;;;;;;;4.28;3.10;;;17.60;99.90;;;;;;5075643;28;20209;-58
2022/08/16 04:51:54;;;;;;;4.47;3.60;;;17.60;99.90;;;;;;5075601;28;20294;-58
2022/08/16 04:54:21;;;;;;;3.53;3.22;;;17.60;99.90;;;;;;5075646;28;20575;-58
2022/08/16 04:56:48;;;;;;;4.85;3.50;;;17.70;99.90;;;;;;5074580;28;20274;-58
2022/08/16 04:59:15;;;;;;;3.70;3.17;;;18.00;99.90;;;;;;5074921;28;20232;-59
2022/08/16 05:01:42;;;;;;;6.97;3.10;;;18.30;99.90;;;;;;5074452;28;20205;-59
2022/08/16 05:04:08;;;;;;;5.38;3.47;;;18.50;99.90;;;;;;5074289;28;20239;-59
2022/08/16 05:06:35;;;;;;;3.85;2.95;;;18.60;99.90;;;;;;5074552;28;20200;-59
2022/08/16 05:09:04;;;;;;;5.78;3.10;;;18.80;99.90;;;;;;5074779;28;20212;-58
2022/08/16 05:11:31;;;;;;;5.15;3.28;;;18.90;99.90;;;;;;5075300;28;20216;-58
2022/08/16 05:14:00;;;;;;;3.30;3.00;;;19.20;99.90;;;;;;5074210;28;20209;-58
2022/08/16 05:16:30;;;;;;;3.75;3.00;;;19.50;99.90;;;;;;5074163;28;20217;-58
2022/08/16 05:18:59;;;;;;;4.90;3.30;;;19.80;99.90;;;;;;5074697;28;20213;-59
2022/08/16 05:21:27;;;;;;;3.75;2.88;;;20.10;99.90;;;;;;5074505;28;20237;-59
2022/08/16 05:23:54;;;;;;;4.50;3.10;;;20.20;99.90;;;;;;5073652;28;20205;-59
2022/08/16 05:26:24;;;;;;;2.90;2.55;;;20.20;99.90;;;;;;5073889;28;20584;-59
2022/08/16 05:28:51;;;;;;;3.35;2.90;;;20.20;99.90;;;;;;5073322;28;20205;-59
2022/08/16 05:31:18;;;;;;;4.60;3.13;;;20.40;99.90;;;;;;5073430;28;20193;-59
2022/08/16 05:33:45;;;;;;;4.32;3.00;;;20.60;99.90;;;;;;5073618;28;20216;-59
2022/08/16 05:36:11;;;;;;;6.45;2.80;;;20.80;99.90;;;;;;5073670;28;20319;-59
2022/08/16 05:38:38;;;;;;;3.30;2.80;;;20.80;99.90;;;;;;5073239;28;20223;-59
2022/08/16 05:41:05;;;;;;;4.13;3.13;;;20.90;99.90;;;;;;5074255;28;20201;-59
2022/08/16 05:43:34;;;;;;;3.13;2.80;;;20.90;99.90;;;;;;5076636;28;20551;-59
2022/08/16 05:46:01;;;;;;;5.07;3.20;;;20.90;99.90;;;;;;5077889;28;20224;-59
2022/08/16 05:48:28;;;;;;;7.63;3.17;;;20.70;99.90;;;;;;5078444;28;20207;-60
2022/08/16 05:50:54;;;;;;;3.25;2.92;;;20.70;99.90;;;;;;5077199;28;20224;-59
2022/08/16 05:53:22;;;;;;;3.03;2.83;;;20.70;99.90;;;;;;5077700;28;20296;-59
2022/08/16 05:55:49;;;;;;;3.80;3.00;;;20.80;99.90;;;;;;5077508;28;20225;-59
2022/08/16 05:58:16;;;;;;;4.63;3.22;;;20.90;99.90;;;;;;5077220;28;20581;-58
2022/08/16 06:00:44;;;;;;;4.43;2.95;;;21.00;99.90;;;;;;5077311;28;20287;-59
2022/08/16 06:03:11;;;;;;;6.18;2.72;;;21.00;99.90;;;;;;5077230;28;20250;-59
2022/08/16 06:05:38;;;;;;;3.08;2.75;;;21.10;99.90;;;;;;5078092;28;20229;-59
2022/08/16 06:08:05;;;;;;;4.40;2.70;;;21.20;99.90;;;;;;5077181;28;20573;-59
2022/08/16 06:10:32;;;;;;;4.43;2.80;;;21.20;99.90;;;;;;5076818;28;20212;-59
2022/08/16 06:12:59;;;;;;;4.13;2.90;;;21.40;99.90;;;;;;5076837;28;20213;-59
2022/08/16 06:15:26;;;;;;;3.83;3.08;;;21.40;99.90;;;;;;5078139;28;20216;-59
2022/08/16 06:17:54;;;;;;;4.45;3.10;;;21.50;99.90;;;;;;5077461;28;20216;-59
2022/08/16 06:20:23;;;;;;;3.10;2.70;;;21.40;99.90;;;;;;5076813;28;20227;-59
2022/08/16 06:22:50;;;;;;;4.38;2.72;;;21.40;99.90;;;;;;5077214;28;20216;-59
2022/08/16 06:25:17;;;;;;;4.13;2.45;;;21.60;99.90;;;;;;5077298;28;20236;-59
2022/08/16 06:27:44;;;;;;;5.57;2.88;;;21.60;99.90;;;;;;5076666;28;20308;-59
2022/08/16 06:30:12;;;;;;;3.35;2.70;;;21.70;99.90;;;;;;5076768;28;20200;-59
2022/08/16 06:32:39;;;;;;;3.30;2.67;;;21.80;99.90;;;;;;5076639;28;20291;-59
2022/08/16 06:35:10;;;;;;;4.00;2.80;;;22.00;99.90;;;;;;5075084;28;20232;-59
2022/08/16 06:37:39;;;;;;;3.55;2.58;;;22.30;99.90;;;;;;5074805;28;20315;-59
2022/08/16 06:40:07;;;;;;;3.33;2.70;;;22.50;99.90;;;;;;5075871;28;20201;-59
2022/08/16 06:42:34;;;;;;;5.38;2.65;;;22.60;99.90;;;;;;5076633;28;20216;-59
2022/08/16 06:45:01;;;;;;;3.20;2.63;;;22.70;99.90;;;;;;5077131;28;20235;-59
2022/08/16 06:47:28;;;;;;;4.60;2.70;;;22.90;99.90;;;;;;5076833;28;20197;-59
2022/08/16 06:49:55;;;;;;;5.70;2.47;;;23.00;99.90;;;;;;5076010;28;20205;-59
2022/08/16 06:52:23;;;;;;;4.55;2.60;;;23.10;99.90;;;;;;5076568;28;20461;-59
2022/08/16 06:54:50;;;;;;;2.95;2.50;;;23.30;99.90;;;;;;5074853;28;20274;-59
2022/08/16 06:57:18;;;;;;;5.45;2.90;;;23.50;99.90;;;;;;5076410;28;20228;-59
2022/08/16 06:59:45;;;;;;;3.47;2.70;;;23.60;99.90;;;;;;5076475;28;20217;-59
2022/08/16 07:02:12;;;;;;;37.20;4.63;;;23.70;99.90;;;;;;5076950;28;20220;-62
2022/08/16 07:04:41;;;;;;;3.65;3.00;;;23.80;99.90;;;;;;5077776;28;20232;-59
2022/08/16 07:07:08;;;;;;;3.80;2.40;;;23.80;99.90;;;;;;5077512;28;20201;-58
2022/08/16 07:09:37;;;;;;;4.60;4.10;;;23.90;99.90;;;;;;5077303;28;20209;-58
2022/08/16 07:12:04;;;;;;;4.78;3.05;;;23.80;99.90;;;;;;5076904;28;20272;-58
2022/08/16 07:14:31;;;;;;;5.95;3.08;;;23.80;99.90;;;;;;5077190;28;20777;-59
2022/08/16 07:16:58;;;;;;;4.00;3.00;;;24.10;99.90;;;;;;5077444;28;20316;-58
2022/08/16 07:19:27;;;;;;;3.35;2.40;;;25.20;99.90;;;;;;5077370;28;20684;-58
2022/08/16 07:21:54;;;;;;;3.22;2.75;;;27.20;99.90;;;;;;5074339;28;20211;-59
2022/08/16 07:24:21;;;;;;;7.22;3.85;;;29.30;99.40;;;;;;5076110;28;20279;-59
2022/08/16 07:26:50;;;;;;;2.75;2.30;;;31.10;93.80;;;;;;5076149;28;20197;-59
2022/08/16 07:29:17;;;;;;;4.22;2.30;;;32.70;86.30;;;;;;5075437;28;20253;-58
2022/08/16 07:31:43;;;;;;;4.07;2.80;;;33.50;81.10;;;;;;5075354;28;20527;-59
2022/08/16 07:34:10;;;;;;;4.28;2.30;;;34.10;76.10;;;;;;5073773;28;20225;-59
2022/08/16 07:36:37;;;;;;;2.60;2.22;;;34.80;72.80;;;;;;5075451;28;20329;-59
2022/08/16 07:39:04;;;;;;;5.15;2.35;;;35.50;68.00;;;;;;5075659;28;20204;-59
2022/08/16 07:41:31;;;;;;;3.33;2.10;;;35.80;65.50;;;;;;5075040;28;20592;-60
2022/08/16 07:44:00;;;;;;;4.35;3.20;;;36.40;62.90;;;;;;5075275;28;20225;-59
2022/08/16 07:46:27;;;;;;;4.82;2.47;;;37.40;60.30;;;;;;5073866;28;20292;-59
2022/08/16 07:48:54;;;;;;;4.60;2.40;;;38.40;57.40;;;;;;5072970;28;20684;-60
2022/08/16 07:51:21;;;;;;;3.53;2.65;;;39.30;54.80;;;;;;5074062;28;20208;-59
2022/08/16 07:53:50;;;;;;;6.20;2.20;;;39.60;53.10;;;;;;5072871;28;20679;-59
2022/08/16 07:56:17;;;;;;;3.53;2.33;;;40.10;51.30;;;;;;5072353;28;20677;-59
2022/08/16 07:58:44;;;;;;;2.90;2.00;;;40.70;50.10;;;;;;5073061;28;20263;-60
2022/08/16 08:01:13;;;;;;;3.72;2.00;;;41.10;49.20;;;;;;5072618;28;20208;-60
2022/08/16 08:03:42;;;;;;;4.03;2.25;;;41.30;48.20;;;;;;5073760;28;20205;-61
2022/08/16 08:06:09;;;;;;;6.45;2.70;;;41.30;47.90;;;;;;5074177;28;20266;-62
2022/08/16 08:08:38;;;;;;;4.00;2.13;;;41.40;46.70;;;;;;5074963;28;20731;-61
2022/08/16 08:11:05;;;;;;;3.25;2.60;;;41.40;46.30;;;;;;5074903;28;20628;-61
2022/08/16 08:13:31;;;;;;;2.35;1.92;;;41.50;46.40;;;;;;5074724;28;20211;-61
2022/08/16 08:15:58;;;;;;;4.85;2.35;;;41.40;45.80;;;;;;5074641;28;20232;-64
2022/08/16 08:18:28;;;;;;;5.50;2.22;;;41.70;45.60;;;;;;5074655;28;20692;-61
2022/08/16 08:20:55;;;;;;;4.50;2.38;;;41.90;45.10;;;;;;5076644;28;20211;-62
2022/08/16 08:23:22;;;;;;;3.80;2.30;;;41.90;44.40;;;;;;5077762;28;20210;-61
2022/08/16 08:25:50;;;;;;;4.45;2.53;;;41.60;44.90;;;;;;5077724;28;20307;-61
2022/08/16 08:28:17;;;;;;;4.70;2.35;;;41.60;45.40;;;;;;5078357;28;20208;-62
2022/08/16 08:30:45;;;;;;;4.63;2.60;;;41.20;44.80;;;;;;5078762;28;20332;-62
2022/08/16 08:33:12;;;;;;;4.00;2.20;;;40.40;45.70;;;;;;5078338;28;20296;-61
2022/08/16 08:35:41;;;;;;;4.32;2.50;;;39.00;47.20;;;;;;5078012;28;20221;-63
2022/08/16 08:38:08;;;;;;;3.20;2.55;;;37.40;49.30;;;;;;5078496;28;20221;-63
2022/08/16 08:40:36;;;;;;;5.93;2.97;;;35.90;51.90;;;;;;5077628;28;20205;-62
2022/08/16 08:43:03;;;;;;;3.65;2.75;;;34.60;53.40;;;;;;5077065;28;20205;-62
2022/08/16 08:45:31;;;;;;;4.00;2.80;;;33.30;55.60;;;;;;5076536;28;20660;-61
2022/08/16 08:47:57;;;;;;;5.70;2.70;;;32.00;58.20;;;;;;5074248;28;20287;-61
2022/08/16 08:50:25;;;;;;;5.00;2.83;;;31.10;60.40;;;;;;5073205;28;20209;-61
2022/08/16 08:52:54;;;;;;;4.72;2.80;;;30.40;62.80;;;;;;5074483;28;20211;-61
2022/08/16 08:55:22;;;;;;;5.30;3.40;;;30.10;64.50;;;;;;5073176;28;20224;-61
2022/08/16 08:57:50;;;;;;;3.72;3.10;;;29.70;66.30;;;;;;5073657;28;20220;-60
2022/08/16 09:00:21;;;;;;;3.75;2.97;;;29.50;66.50;;;;;;5074331;28;20235;-60
2022/08/16 09:02:49;;;;;;;6.72;3.15;;;29.20;67.90;;;;;;5074561;28;20679;-65
2022/08/16 09:05:17;;;;;;;5.25;3.40;;;28.90;69.00;;;;;;5074411;28;20233;-64
2022/08/16 09:07:45;;;;;;;4.75;3.03;;;28.70;69.70;;;;;;5073629;28;20247;-60
2022/08/16 09:10:14;;;;;;;4.00;3.15;;;28.70;70.80;;;;;;5073281;28;20205;-60
2022/08/16 09:12:41;;;;;;;6.00;2.97;;;28.70;70.50;;;;;;5071787;28;20262;-60
2022/08/16 09:15:11;;;;;;;6.05;3.30;;;28.80;70.60;;;;;;5071570;28;20229;-60
2022/08/16 09:17:38;;;;;;;4.07;3.10;;;28.90;69.70;;;;;;5072306;28;20225;-59
2022/08/16 09:20:06;;;;;;;6.20;3.10;;;29.00;69.50;;;;;;5075029;28;20304;-60
2022/08/16 09:22:34;;;;;;;4.05;2.60;;;29.00;71.00;;;;;;5075059;28;20246;-60
2022/08/16 09:25:00;;;;;;;4.60;2.70;;;28.90;70.60;;;;;;5075100;28;20228;-59
2022/08/16 09:27:29;;;;;;;4.50;2.65;;;28.80;70.70;;;;;;5075064;28;20201;-58
2022/08/16 09:29:56;;;;;;;7.13;3.22;;;28.80;70.40;;;;;;5075208;28;20208;-59
2022/08/16 09:32:23;;;;;;;6.00;3.30;;;28.60;70.90;;;;;;5074158;28;20606;-57
2022/08/16 09:34:50;;;;;;;4.45;2.80;;;28.40;71.30;;;;;;5074735;28;20243;-58
2022/08/16 09:37:17;;;;;;;7.65;2.80;;;28.40;71.20;;;;;;5069729;28;20229;-58
2022/08/16 09:39:44;;;;;;;3.88;2.78;;;28.50;69.40;;;;;;5074438;28;20288;-61
2022/08/16 09:42:13;;;;;;;4.53;2.80;;;28.50;68.60;;;;;;5074966;28;20574;-61
2022/08/16 09:44:42;;;;;;;4.03;2.80;;;28.50;68.80;;;;;;5074559;28;20941;-59
2022/08/16 09:47:09;;;;;;;4.68;2.55;;;28.40;69.30;;;;;;5074742;28;20205;-59
2022/08/16 09:49:36;;;;;;;4.43;2.90;;;28.60;69.30;;;;;;5075142;28;20250;-60
2022/08/16 09:52:04;;;;;;;4.53;2.92;;;29.00;69.50;;;;;;5075749;28;20201;-64
2022/08/16 09:54:31;;;;;;;3.63;2.92;;;29.40;69.00;;;;;;5075983;28;20229;-57
2022/08/16 09:56:58;;;;;;;3.75;2.80;;;29.60;67.50;;;;;;5075149;28;20731;-57
2022/08/16 09:59:25;;;;;;;5.50;2.80;;;29.70;67.40;;;;;;5075110;28;20217;-57
2022/08/16 10:01:54;;;;;;;5.55;2.58;;;29.80;67.90;;;;;;5075392;28;20255;-57
2022/08/16 10:04:24;;;;;;;4.72;2.95;;;29.60;68.30;;;;;;5075847;28;20229;-57
2022/08/16 10:06:51;;;;;;;3.80;3.25;;;29.30;68.70;;;;;;5075422;28;20237;-58
2022/08/16 10:09:18;;;;;;;4.00;2.97;;;29.20;69.10;;;;;;5075467;28;20259;-57
2022/08/16 10:14:30;;;;;;;3.83;2.90;;;29.00;69.30;;;;;;5075274;28;20227;-57
2022/08/16 10:17:00;;;;;;;7.53;3.10;;;29.10;69.50;;;;;;5075162;28;20320;-57
2022/08/16 10:19:28;;;;;;;5.60;2.83;;;29.20;69.20;;;;;;5075047;28;20243;-57
2022/08/16 10:21:56;;;;;;;6.75;2.83;;;29.40;68.80;;;;;;5074960;28;20209;-57
2022/08/16 10:24:23;;;;;;;4.90;2.80;;;29.60;67.50;;;;;;5075089;28;20235;-57
2022/08/16 10:26:51;;;;;;;3.88;2.90;;;29.70;67.00;;;;;;5074901;28;20908;-57
2022/08/16 10:29:19;;;;;;;4.72;2.78;;;29.80;67.50;;;;;;5074086;28;20244;-57
2022/08/16 10:31:46;;;;;;;5.95;3.05;;;30.00;67.20;;;;;;5074905;28;20681;-57
2022/08/16 10:34:15;;;;;;;5.13;3.20;;;30.00;66.50;;;;;;5075313;28;20228;-55
2022/08/16 10:36:42;;;;;;;7.85;2.92;;;30.20;66.60;;;;;;5074612;28;20300;-56
2022/08/16 10:39:08;;;;;;;3.80;2.75;;;30.30;66.50;;;;;;5074753;28;20216;-58
2022/08/16 10:41:35;;;;;;;6.82;3.15;;;30.50;65.60;;;;;;5075200;28;20240;-56
2022/08/16 10:44:03;;;;;;;3.70;2.95;;;30.60;65.10;;;;;;5075580;28;20209;-56
2022/08/16 10:46:30;;;;;;;66.85;11.07;;;30.70;64.90;;;;;;5071743;28;20546;-59
2022/08/16 10:48:58;;;;;;;12.38;4.75;;;31.00;64.40;;;;;;5073936;28;20197;-59
2022/08/16 10:51:26;;;;;;;8.15;4.20;;;31.20;64.00;;;;;;5073834;28;20215;-56
2022/08/16 10:53:53;;;;;;;5.38;2.70;;;31.50;62.80;;;;;;5073971;28;20247;-56
2022/08/16 10:56:23;;;;;;;3.40;2.60;;;31.90;62.40;;;;;;5074264;28;20205;-58
2022/08/16 10:58:50;;;;;;;5.57;3.13;;;32.20;61.10;;;;;;5075371;28;20225;-59
2022/08/16 11:01:17;;;;;;;4.28;2.70;;;32.50;60.50;;;;;;5074040;28;20327;-58
2022/08/16 11:03:44;;;;;;;4.90;3.00;;;32.70;60.30;;;;;;5073748;28;20311;-60
2022/08/16 11:06:11;;;;;;;4.15;3.10;;;33.00;59.20;;;;;;5073750;28;20458;-60
2022/08/16 11:08:39;;;;;;;4.32;2.80;;;33.40;58.60;;;;;;5073445;28;20676;-60
2022/08/16 11:11:07;;;;;;;3.58;2.70;;;33.60;57.60;;;;;;5073686;28;20208;-58
2022/08/16 11:13:34;;;;;;;3.33;2.72;;;33.80;58.00;;;;;;5074390;28;20292;-57
2022/08/16 11:16:01;;;;;;;2.75;2.40;;;33.90;56.90;;;;;;5073306;28;20310;-59
2022/08/16 11:18:29;;;;;;;4.18;2.95;;;34.00;55.60;;;;;;5073342;28;20228;-59
2022/08/16 11:20:57;;;;;;;3.53;2.78;;;33.60;56.30;;;;;;5073437;28;20236;-58
2022/08/16 11:23:25;;;;;;;6.32;2.80;;;33.30;57.10;;;;;;5073342;28;20497;-57
2022/08/16 11:25:55;;;;;;;5.63;2.75;;;32.90;57.30;;;;;;5073782;28;20256;-58
2022/08/16 11:28:23;;;;;;;3.63;2.72;;;32.80;58.00;;;;;;5073715;28;20268;-58
2022/08/16 11:30:50;;;;;;;4.65;2.60;;;32.80;57.90;;;;;;5073521;28;20719;-59
2022/08/16 11:33:17;;;;;;;7.75;2.80;;;32.80;57.50;;;;;;5073495;28;20251;-59
2022/08/16 11:35:45;;;;;;;3.38;2.25;;;32.80;56.90;;;;;;5073468;28;20600;-60
2022/08/16 11:38:14;;;;;;;3.67;2.42;;;32.90;55.90;;;;;;5074101;28;20224;-60
2022/08/16 11:40:45;;;;;;;6.22;2.30;;;33.10;55.50;;;;;;5072264;28;20304;-59
2022/08/16 11:43:15;;;;;;;3.50;2.45;;;33.40;55.60;;;;;;5074148;28;20201;-59
2022/08/16 11:45:42;;;;;;;3.90;2.63;;;33.70;55.30;;;;;;5073921;28;20228;-59
2022/08/16 11:48:09;;;;;;;6.53;2.70;;;33.80;54.60;;;;;;5073479;28;20201;-60
2022/08/16 11:50:36;;;;;;;3.55;2.72;;;33.90;54.20;;;;;;5073701;28;20208;-57
2022/08/16 11:53:04;;;;;;;5.60;2.90;;;33.80;54.30;;;;;;5073781;28;20209;-62
2022/08/16 11:55:34;;;;;;;6.93;2.53;;;33.50;54.80;;;;;;5074548;28;20287;-62
2022/08/16 11:58:02;;;;;;;4.60;3.42;;;33.30;54.40;;;;;;5074633;28;20279;-61
2022/08/16 12:00:32;;;;;;;3.25;2.78;;;33.20;54.70;;;;;;5073480;28;20240;-61
2022/08/16 12:02:59;;;;;;;3.97;2.53;;;33.00;55.00;;;;;;5074389;28;20237;-62
2022/08/16 12:05:27;;;;;;;4.40;2.50;;;32.80;55.80;;;;;;5074666;28;20291;-63
2022/08/16 12:07:54;;;;;;;3.42;2.50;;;32.50;56.20;;;;;;5073218;28;20197;-61
2022/08/16 12:10:24;;;;;;;3.95;2.40;;;32.40;56.50;;;;;;5072632;28;20642;-58
2022/08/16 12:12:51;;;;;;;3.03;2.40;;;32.40;56.50;;;;;;5072348;28;20235;-58
2022/08/16 12:15:19;;;;;;;3.25;2.45;;;32.30;56.60;;;;;;5073132;28;20229;-58
2022/08/16 12:17:48;;;;;;;3.65;2.47;;;32.30;56.50;;;;;;5071968;28;20228;-57
2022/08/16 12:20:17;;;;;;;8.57;3.05;;;32.20;56.50;;;;;;5071899;28;20227;-57
2022/08/16 12:22:45;;;;;;;3.15;2.35;;;32.10;56.80;;;;;;5071065;28;20205;-59
2022/08/16 12:25:14;;;;;;;5.45;2.75;;;31.60;57.40;;;;;;5072311;28;20231;-59
2022/08/16 12:27:43;;;;;;;5.32;2.65;;;31.20;58.50;;;;;;5071909;28;20211;-63
2022/08/16 12:30:13;;;;;;;6.00;2.70;;;31.00;59.30;;;;;;5071738;28;20215;-60
2022/08/16 12:32:40;;;;;;;2.60;2.30;;;30.80;59.50;;;;;;5071769;28;20205;-61
2022/08/16 12:35:11;;;;;;;2.92;2.50;;;30.80;59.90;;;;;;5072372;28;20232;-58
2022/08/16 12:37:39;;;;;;;4.72;2.97;;;30.70;60.10;;;;;;5072052;28;20312;-60
2022/08/16 12:40:09;;;;;;;4.53;2.60;;;30.70;60.10;;;;;;5070073;28;20714;-57
2022/08/16 12:42:35;;;;;;;4.72;2.58;;;30.50;60.10;;;;;;5070538;28;20609;-59
2022/08/16 12:45:03;;;;;;;4.55;2.80;;;30.40;60.70;;;;;;5071763;28;20282;-57
2022/08/16 12:50:15;;;;;;;15.43;3.00;;;30.10;61.50;;;;;;5070671;28;20679;-63
2022/08/16 12:52:42;;;;;;;22.38;3.83;;;30.00;61.10;;;;;;5071844;28;20205;-61